10G weather

Holmes County Airport
Millersburg, Ohio, United States

Public forecast

Using degrees Fahrenheit for public forecast. Weather courtesy of forecast.io.

Closest aviation weather report (METAR) to Holmes County Airport

Closest report is Wayne County Airport, 20.5 nm (38.0 km) N. Retrieved 2020/05/26 06:56 UTC (20 minutes ago):

KBJJ 260656Z AUTO 00000KT 9SM CLR 18/17 A3008 RMK AO2 SLP179 T01780172

Closest aviation forecast (TAF) to Holmes County Airport

Closest forecast is Mansfield Lahm Regional Airport, 30.8 nm (57.0 km) NW. Retrieved 2020/05/26 06:30 UTC (46 minutes ago):

TAF KMFD 260527Z 2606/2706 VRB03KT P6SM SKC FM261400 18004KT P6SM FEW040 SCT200 FM261800 15008KT P6SM SCT045